Terminal Aerodrome Forecast
Issued by NWS Cleveland, OH

Home | Current Version | Previous Version | Text Only | Print | Product List | Glossary On
Versions: 1 2 3 4 5 6 7 8 9 10 11 12 13 14 15
874
FTUS41 KCLE 211139
TAFMFD
TAF
KMFD 211139Z 2112/2212 19005KT P6SM SCT035 BKN150
     FM211800 23008KT P6SM VCTS SCT040CB BKN080
     FM220000 22005KT P6SM SCT200
     FM220800 20010KT P6SM BKN200=

USA.gov is the U.S. government's official web portal to all federal, state and local government web resources and services.